Time;durP1;ratioP1;P1;durP2;ratioP2;P2;SDS_P1;SDS_P2;PMS_P1;PMS_P2;Temp;Humidity;BMP_temperature;BMP_pressure;BME280_temperature;BME280_humidity;BME280_pressure;Samples;Min_cycle;Max_cycle;Signal;HPM_P1;HPM_P2
2020/12/10 00:00:08;;;;;;;25.93;14.80;;;;;;;6.45;100.00;94886.03;5072354;28;20200;-67
2020/12/10 00:02:36;;;;;;;22.10;13.13;;;;;;;6.39;100.00;94961.22;5072141;28;20731;-69
2020/12/10 00:05:03;;;;;;;21.77;13.53;;;;;;;6.41;100.00;94915.28;5072527;28;20195;-67
2020/12/10 00:07:30;;;;;;;21.07;13.03;;;;;;;6.45;100.00;94935.06;5072227;28;20617;-69
2020/12/10 00:09:57;;;;;;;19.43;12.63;;;;;;;6.51;100.00;94945.31;5072213;28;20192;-67
2020/12/10 00:12:23;;;;;;;22.93;13.47;;;;;;;6.52;100.00;94957.94;5072227;28;20207;-69
2020/12/10 00:14:53;;;;;;;24.03;15.67;;;;;;;6.75;100.00;94918.34;5071993;28;20188;-68
2020/12/10 00:17:25;;;;;;;28.40;16.93;;;;;;;6.63;100.00;94961.91;5071999;28;20196;-69
2020/12/10 00:19:53;;;;;;;26.37;16.63;;;;;;;6.78;100.00;94883.44;5072169;28;20199;-68
2020/12/10 00:22:19;;;;;;;28.60;17.20;;;;;;;6.67;100.00;94906.09;5071771;28;20203;-68
2020/12/10 00:24:47;;;;;;;24.23;14.93;;;;;;;6.46;100.00;94915.19;5071873;28;20199;-68
2020/12/10 00:27:15;;;;;;;24.53;14.97;;;;;;;6.38;100.00;94916.56;5072226;28;20284;-68
2020/12/10 00:29:42;;;;;;;29.10;16.30;;;;;;;6.48;100.00;94915.66;5071019;28;20243;-67
2020/12/10 00:32:11;;;;;;;19.63;14.07;;;;;;;6.61;100.00;94921.94;5071741;28;20200;-67
2020/12/10 00:34:39;;;;;;;22.83;14.03;;;;;;;6.62;100.00;94901.03;5071793;28;20278;-68
2020/12/10 00:37:07;;;;;;;21.20;14.53;;;;;;;6.69;100.00;94911.72;5071910;28;20222;-67
2020/12/10 00:39:35;;;;;;;21.27;14.70;;;;;;;6.75;100.00;94899.50;5071310;28;20197;-66
2020/12/10 00:42:02;;;;;;;18.13;11.77;;;;;;;6.78;100.00;94886.78;5071351;28;20196;-68
2020/12/10 00:44:28;;;;;;;20.23;12.43;;;;;;;6.70;100.00;94926.19;5071367;28;20189;-68
2020/12/10 00:46:55;;;;;;;17.40;11.83;;;;;;;6.82;100.00;94903.25;5071325;28;20206;-68
2020/12/10 00:49:23;;;;;;;18.33;12.67;;;;;;;6.78;100.00;94920.34;5071555;28;20199;-68
2020/12/10 00:51:50;;;;;;;19.53;12.20;;;;;;;6.83;100.00;94922.84;5071459;28;20200;-68
2020/12/10 00:54:19;;;;;;;21.10;12.97;;;;;;;6.79;100.00;94932.22;5071295;28;20194;-67
2020/12/10 00:56:46;;;;;;;24.70;14.30;;;;;;;6.90;100.00;94918.09;5071149;28;20195;-68
2020/12/10 00:59:13;;;;;;;26.03;16.90;;;;;;;6.98;100.00;94913.31;5071103;28;20200;-68
2020/12/10 01:01:41;;;;;;;18.00;11.53;;;;;;;7.20;100.00;94903.13;5071424;28;20208;-68
2020/12/10 01:04:08;;;;;;;27.57;15.47;;;;;;;7.09;100.00;94925.03;5071139;28;20199;-68
2020/12/10 01:06:35;;;;;;;20.47;12.17;;;;;;;7.15;100.00;94892.88;5070937;28;20196;-68
2020/12/10 01:09:03;;;;;;;15.73;10.67;;;;;;;7.10;100.00;94913.63;5070904;28;20232;-68
2020/12/10 01:11:31;;;;;;;17.23;11.37;;;;;;;7.11;100.00;94897.09;5070941;28;20193;-66
2020/12/10 01:13:58;;;;;;;18.97;11.87;;;;;;;7.09;100.00;94896.59;5070841;28;20575;-69
2020/12/10 01:16:25;;;;;;;18.43;12.17;;;;;;;7.13;100.00;94889.81;5071044;28;20197;-66
2020/12/10 01:18:51;;;;;;;24.93;14.27;;;;;;;7.22;100.00;94888.84;5070738;28;20206;-68
2020/12/10 01:21:28;;;;;;;29.67;15.97;;;;;;;7.25;100.00;94874.63;5070689;28;20283;-69
2020/12/10 01:23:55;;;;;;;27.10;15.23;;;;;;;7.26;100.00;94883.91;5070699;28;20257;-68
2020/12/10 01:26:23;;;;;;;25.43;14.80;;;;;;;7.12;100.00;94899.41;5070784;28;20210;-68
2020/12/10 01:28:51;;;;;;;16.53;10.33;;;;;;;7.21;100.00;94897.69;5070494;28;20231;-68
2020/12/10 01:31:18;;;;;;;16.80;10.57;;;;;;;7.22;100.00;94899.19;5070475;28;20219;-69
2020/12/10 01:33:44;;;;;;;19.47;11.77;;;;;;;7.29;100.00;94883.31;5070631;28;20674;-69
2020/12/10 01:36:16;;;;;;;19.87;11.47;;;;;;;7.34;100.00;94885.81;5070460;28;20193;-68
2020/12/10 01:38:43;;;;;;;27.17;16.60;;;;;;;7.38;100.00;94875.66;5070614;28;20300;-68
2020/12/10 01:41:10;;;;;;;21.17;13.33;;;;;;;7.23;100.00;94884.47;5070474;28;20671;-68
2020/12/10 01:43:37;;;;;;;17.97;12.37;;;;;;;7.24;100.00;94893.75;5070196;28;20206;-68
2020/12/10 01:46:05;;;;;;;19.87;13.40;;;;;;;7.26;100.00;94865.81;5070427;28;20191;-67
2020/12/10 01:48:32;;;;;;;18.33;11.60;;;;;;;7.35;100.00;94877.00;5070115;28;20220;-67
2020/12/10 01:50:59;;;;;;;17.70;11.53;;;;;;;7.19;100.00;94873.94;5070332;28;20322;-66
2020/12/10 01:53:26;;;;;;;19.37;12.47;;;;;;;7.27;100.00;94870.69;5070276;28;20196;-69
2020/12/10 01:55:53;;;;;;;18.83;11.30;;;;;;;7.32;100.00;94862.09;5070217;28;20208;-67
2020/12/10 01:58:20;;;;;;;18.97;11.57;;;;;;;7.42;100.00;94858.53;5070174;28;20211;-68
2020/12/10 02:00:47;;;;;;;20.10;11.33;;;;;;;7.30;100.00;94869.34;5070204;28;20299;-67
2020/12/10 02:03:15;;;;;;;16.40;10.43;;;;;;;7.31;100.00;94852.81;5070080;28;20199;-67
2020/12/10 02:05:42;;;;;;;16.57;10.90;;;;;;;7.35;100.00;94869.25;5070578;28;20197;-67
2020/12/10 02:08:09;;;;;;;17.70;10.97;;;;;;;7.46;100.00;94870.59;5069965;28;20242;-67
2020/12/10 02:10:36;;;;;;;15.10;10.53;;;;;;;7.43;100.00;94886.66;5070161;28;20279;-66
2020/12/10 02:13:03;;;;;;;14.77;9.73;;;;;;;7.50;100.00;94868.97;5070283;28;20203;-67
2020/12/10 02:15:33;;;;;;;14.50;10.53;;;;;;;7.68;100.00;94862.91;5070043;28;20211;-68
2020/12/10 02:18:01;;;;;;;16.83;11.90;;;;;;;7.64;100.00;94881.88;5069818;28;20279;-65
2020/12/10 02:20:29;;;;;;;18.57;11.80;;;;;;;7.56;100.00;94891.09;5070298;28;20663;-68
2020/12/10 02:23:03;;;;;;;20.77;13.77;;;;;;;7.55;100.00;94884.38;5069946;28;20196;-68
2020/12/10 02:25:31;;;;;;;15.17;10.73;;;;;;;7.74;100.00;94856.56;5069803;28;20205;-68
2020/12/10 02:28:00;;;;;;;13.30;8.90;;;;;;;7.75;100.00;94850.34;5069835;28;20764;-68
2020/12/10 02:30:27;;;;;;;17.00;11.43;;;;;;;7.64;100.00;94856.78;5069877;28;20208;-66
2020/12/10 02:32:58;;;;;;;15.47;10.50;;;;;;;7.58;100.00;94839.84;5070013;28;20204;-67
2020/12/10 02:35:26;;;;;;;15.90;11.17;;;;;;;7.62;100.00;94837.47;5069834;28;20204;-68
2020/12/10 02:37:55;;;;;;;16.37;11.27;;;;;;;7.53;100.00;94844.34;5069754;28;20197;-68
2020/12/10 02:40:24;;;;;;;33.17;19.80;;;;;;;7.52;100.00;94843.56;5069617;28;20232;-67
2020/12/10 02:42:51;;;;;;;19.90;12.57;;;;;;;7.59;100.00;94845.78;5069664;28;20578;-66
2020/12/10 02:45:18;;;;;;;30.00;17.53;;;;;;;7.51;100.00;94831.72;5069991;28;20226;-68
2020/12/10 02:47:45;;;;;;;31.13;19.23;;;;;;;7.56;100.00;94823.09;5070056;28;20228;-68
2020/12/10 02:50:12;;;;;;;18.37;12.33;;;;;;;7.50;100.00;94813.91;5070085;28;20197;-69
2020/12/10 02:52:39;;;;;;;15.23;10.37;;;;;;;7.53;100.00;94824.44;5070300;28;20197;-69
2020/12/10 02:55:06;;;;;;;12.83;9.60;;;;;;;7.53;100.00;94828.84;5073532;28;20193;-65
2020/12/10 02:57:33;;;;;;;14.20;9.60;;;;;;;7.47;100.00;94815.25;5073571;28;20534;-67
2020/12/10 03:00:00;;;;;;;17.77;12.20;;;;;;;7.47;100.00;94822.25;5073331;28;20741;-68
2020/12/10 03:02:27;;;;;;;18.00;12.23;;;;;;;7.43;100.00;94822.06;5073522;28;20199;-69
2020/12/10 03:04:54;;;;;;;34.77;20.17;;;;;;;7.47;100.00;94799.72;5073482;28;20202;-67
2020/12/10 03:07:21;;;;;;;31.93;19.20;;;;;;;7.52;100.00;94822.91;5073224;28;20227;-68
2020/12/10 03:09:47;;;;;;;23.77;14.27;;;;;;;7.49;100.00;94822.72;5073214;28;20283;-69
2020/12/10 03:12:14;;;;;;;19.33;12.93;;;;;;;7.54;100.00;94838.88;5073126;28;20228;-67
2020/12/10 03:14:42;;;;;;;19.00;12.10;;;;;;;7.63;100.00;94842.31;5073035;28;20203;-68
2020/12/10 03:17:09;;;;;;;19.57;12.20;;;;;;;7.67;100.00;94845.84;5073137;28;20223;-68
2020/12/10 03:19:36;;;;;;;29.50;23.97;;;;;;;7.63;100.00;94834.56;5073176;28;20663;-67
2020/12/10 03:22:03;;;;;;;18.93;13.67;;;;;;;7.69;100.00;94823.06;5073121;28;20294;-68
2020/12/10 03:24:30;;;;;;;18.00;13.40;;;;;;;7.65;100.00;94823.94;5072977;28;20204;-67
2020/12/10 03:26:56;;;;;;;17.23;12.10;;;;;;;7.68;100.00;94837.03;5072876;28;20673;-68
2020/12/10 03:29:23;;;;;;;19.23;11.97;;;;;;;7.68;100.00;94834.47;5072648;28;20223;-67
2020/12/10 03:31:51;;;;;;;19.77;13.30;;;;;;;7.71;100.00;94822.78;5072759;28;20207;-67
2020/12/10 03:34:19;;;;;;;46.23;19.27;;;;;;;7.60;100.00;94827.41;5072806;28;20192;-68
2020/12/10 03:36:48;;;;;;;25.87;15.43;;;;;;;7.57;100.00;94814.28;5073005;28;20855;-68
2020/12/10 03:39:15;;;;;;;18.87;13.60;;;;;;;7.69;100.00;94822.31;5072640;28;20655;-67
2020/12/10 03:41:43;;;;;;;38.90;16.57;;;;;;;7.81;100.00;94811.44;5072453;28;20233;-68
2020/12/10 03:44:10;;;;;;;27.07;15.37;;;;;;;7.71;100.00;94818.38;5072673;28;20208;-67
2020/12/10 03:46:37;;;;;;;23.13;14.37;;;;;;;7.70;100.00;94810.91;5072406;28;20194;-67
2020/12/10 03:49:05;;;;;;;17.93;12.67;;;;;;;7.64;100.00;94822.41;5072319;28;20302;-66
2020/12/10 03:51:32;;;;;;;22.73;14.53;;;;;;;7.64;100.00;94820.59;5072336;28;20201;-68
2020/12/10 03:53:59;;;;;;;27.70;17.73;;;;;;;7.61;100.00;94823.75;5072369;28;20196;-68
2020/12/10 03:56:26;;;;;;;38.60;19.30;;;;;;;7.60;100.00;94814.47;5072750;28;20585;-67
2020/12/10 03:58:52;;;;;;;23.70;14.87;;;;;;;7.63;100.00;94837.16;5072479;28;20197;-67
2020/12/10 04:01:19;;;;;;;21.17;15.27;;;;;;;7.51;100.00;94829.13;5072253;28;20197;-66
2020/12/10 04:03:46;;;;;;;21.57;14.33;;;;;;;7.44;100.00;94831.34;5072199;28;20192;-67
2020/12/10 04:06:14;;;;;;;20.97;14.83;;;;;;;7.36;100.00;94839.78;5072151;28;20721;-67
2020/12/10 04:08:41;;;;;;;25.60;17.20;;;;;;;7.28;100.00;94845.59;5072272;28;20610;-68
2020/12/10 04:11:07;;;;;;;26.73;16.90;;;;;;;7.17;100.00;94839.13;5072587;28;20192;-68
2020/12/10 04:13:34;;;;;;;25.50;16.53;;;;;;;7.09;100.00;94832.03;5072494;28;20191;-66
2020/12/10 04:16:01;;;;;;;27.17;16.90;;;;;;;7.18;100.00;94840.63;5072151;28;20230;-67
2020/12/10 04:18:29;;;;;;;23.40;16.17;;;;;;;7.18;100.00;94838.03;5071991;28;20210;-69
2020/12/10 04:20:56;;;;;;;24.53;16.83;;;;;;;7.28;100.00;94837.84;5072085;28;20201;-67
2020/12/10 04:23:24;;;;;;;21.27;15.57;;;;;;;7.41;100.00;94844.84;5071989;28;20644;-68
2020/12/10 04:25:52;;;;;;;21.17;16.80;;;;;;;7.24;100.00;94849.81;5071746;28;20965;-69
2020/12/10 04:28:18;;;;;;;18.13;13.33;;;;;;;7.24;100.00;94863.50;5071675;28;20596;-68
2020/12/10 04:30:45;;;;;;;18.10;12.90;;;;;;;7.31;100.00;94861.31;5071618;28;20578;-69
2020/12/10 04:33:12;;;;;;;17.83;12.10;;;;;;;7.32;100.00;94847.31;5071567;28;20262;-68
2020/12/10 04:35:40;;;;;;;20.73;14.57;;;;;;;7.25;100.00;94838.44;5071604;28;20196;-69
2020/12/10 04:38:08;;;;;;;20.50;13.83;;;;;;;7.21;100.00;94843.44;5071553;28;20279;-69
2020/12/10 04:40:37;;;;;;;19.63;13.70;;;;;;;7.20;100.00;94851.47;5071158;28;20817;-68
2020/12/10 04:43:05;;;;;;;17.87;12.70;;;;;;;6.98;100.00;94830.66;5071317;28;20283;-68
2020/12/10 04:45:32;;;;;;;15.83;11.60;;;;;;;6.81;100.00;94855.25;5071298;28;20200;-64
2020/12/10 04:48:00;;;;;;;17.73;12.70;;;;;;;6.79;100.00;94847.03;5071219;28;20318;-68
2020/12/10 04:50:29;;;;;;;25.43;15.73;;;;;;;6.77;100.00;94849.13;5071400;28;20208;-68
2020/12/10 04:52:57;;;;;;;24.67;15.03;;;;;;;6.80;100.00;94861.47;5071233;28;20189;-63
2020/12/10 04:55:26;;;;;;;29.10;18.90;;;;;;;6.85;100.00;94858.03;5071092;28;20199;-67
2020/12/10 04:57:55;;;;;;;32.10;19.93;;;;;;;7.13;100.00;94845.91;5071032;28;20254;-67
2020/12/10 05:00:22;;;;;;;28.73;19.33;;;;;;;7.14;100.00;94857.75;5070989;28;20200;-68
2020/12/10 05:02:49;;;;;;;40.30;24.23;;;;;;;7.28;100.00;94845.59;5071224;28;20671;-67
2020/12/10 05:05:27;;;;;;;44.43;23.33;;;;;;;7.37;100.00;94846.50;5070909;28;20203;-66
2020/12/10 05:07:57;;;;;;;33.00;19.43;;;;;;;7.37;100.00;94836.16;5070725;28;20725;-66
2020/12/10 05:10:24;;;;;;;27.30;16.90;;;;;;;7.48;100.00;94837.47;5070897;28;20203;-68
2020/12/10 05:12:51;;;;;;;30.77;17.77;;;;;;;7.62;100.00;94840.78;5070743;28;20200;-68
2020/12/10 05:15:31;;;;;;;55.30;30.73;;;;;;;7.74;100.00;94817.03;5070343;28;20200;-69
2020/12/10 05:18:05;;;;;;;60.00;28.03;;;;;;;7.71;100.00;94827.97;5070905;28;20200;-69
2020/12/10 05:20:43;;;;;;;56.73;31.87;;;;;;;7.74;100.00;94837.72;5070823;28;20233;-69
2020/12/10 05:23:10;;;;;;;145.50;59.93;;;;;;;7.79;100.00;94829.84;5070475;28;20258;-68
2020/12/10 05:25:51;;;;;;;93.80;43.83;;;;;;;7.53;100.00;94836.59;5070602;28;20270;-68
2020/12/10 05:28:19;;;;;;;63.53;33.60;;;;;;;7.50;100.00;94853.47;5070546;28;20228;-69
2020/12/10 05:31:01;;;;;;;32.30;19.50;;;;;;;7.47;100.00;94851.44;5070432;28;20212;-67
2020/12/10 05:33:28;;;;;;;20.33;14.67;;;;;;;7.46;100.00;94839.59;5070537;28;20192;-69
2020/12/10 05:36:10;;;;;;;20.63;15.13;;;;;;;7.43;100.00;94842.72;5070483;28;20195;-69
2020/12/10 05:38:54;;;;;;;75.37;40.93;;;;;;;7.33;100.00;94851.44;5070749;28;20311;-68
2020/12/10 05:41:22;;;;;;;26.43;16.73;;;;;;;7.30;100.00;94833.19;5070337;28;20235;-68
2020/12/10 05:43:49;;;;;;;21.03;13.67;;;;;;;7.45;100.00;94829.53;5070432;28;20196;-69
2020/12/10 05:46:18;;;;;;;19.13;13.93;;;;;;;7.38;100.00;94850.59;5070314;28;20260;-67
2020/12/10 05:48:46;;;;;;;33.40;21.97;;;;;;;7.26;100.00;94858.84;5070447;28;20574;-68
2020/12/10 05:51:18;;;;;;;60.90;34.87;;;;;;;7.20;100.00;94851.47;5070437;28;20601;-67
2020/12/10 05:53:45;;;;;;;46.70;32.97;;;;;;;7.42;100.00;94845.63;5070443;28;20234;-69
2020/12/10 05:56:13;;;;;;;30.17;21.67;;;;;;;7.46;100.00;94857.69;5070318;28;20193;-68
2020/12/10 05:58:50;;;;;;;29.90;21.43;;;;;;;7.35;100.00;94851.16;5070081;28;20742;-69
2020/12/10 06:01:36;;;;;;;22.57;15.90;;;;;;;7.45;100.00;94858.72;5070200;28;20201;-68
2020/12/10 06:04:04;;;;;;;26.70;19.43;;;;;;;7.35;100.00;94856.34;5070138;28;20283;-67
2020/12/10 06:06:31;;;;;;;61.93;36.70;;;;;;;7.37;100.00;94862.00;5070107;28;20214;-68
2020/12/10 06:09:01;;;;;;;35.07;22.73;;;;;;;7.31;100.00;94870.88;5069872;28;20742;-67
2020/12/10 06:11:30;;;;;;;67.83;33.77;;;;;;;7.24;100.00;94871.25;5070021;28;20245;-68
2020/12/10 06:14:04;;;;;;;24.77;17.33;;;;;;;7.27;100.00;94875.09;5070027;28;20277;-68
2020/12/10 06:16:32;;;;;;;31.10;20.53;;;;;;;7.24;100.00;94883.41;5069988;28;20195;-68
2020/12/10 06:19:04;;;;;;;20.40;14.40;;;;;;;7.26;100.00;94878.75;5070267;28;20567;-64
2020/12/10 06:21:38;;;;;;;22.43;14.47;;;;;;;7.24;100.00;94860.94;5069854;28;20279;-68
2020/12/10 06:24:34;;;;;;;33.67;21.43;;;;;;;7.21;100.00;94865.91;5070194;28;20252;-68
2020/12/10 06:27:20;;;;;;;54.57;33.97;;;;;;;7.13;100.00;94879.47;5070435;28;20192;-67
2020/12/10 06:29:47;;;;;;;87.43;52.37;;;;;;;7.13;100.00;94876.88;5074131;28;20239;-68
2020/12/10 06:32:14;;;;;;;46.67;29.97;;;;;;;7.13;100.00;94863.97;5074076;28;20207;-67
2020/12/10 06:34:51;;;;;;;35.07;23.43;;;;;;;7.17;100.00;94878.63;5073887;28;20242;-66
2020/12/10 06:37:23;;;;;;;46.30;31.87;;;;;;;7.17;100.00;94888.94;5073884;28;20196;-67
2020/12/10 06:39:52;;;;;;;71.37;44.40;;;;;;;7.24;100.00;94881.59;5073748;28;20211;-67
2020/12/10 06:42:19;;;;;;;110.23;57.80;;;;;;;7.34;100.00;94868.50;5073865;28;20192;-67
2020/12/10 06:44:46;;;;;;;89.80;55.90;;;;;;;7.34;100.00;94875.47;5073802;28;20200;-67
2020/12/10 06:47:13;;;;;;;120.67;69.20;;;;;;;7.28;100.00;94898.06;5073946;28;20752;-67
2020/12/10 06:49:40;;;;;;;91.20;48.87;;;;;;;7.31;100.00;94886.41;5073551;28;20315;-68
2020/12/10 06:52:09;;;;;;;93.93;50.30;;;;;;;7.36;100.00;94883.72;5073488;28;20279;-68
2020/12/10 06:54:36;;;;;;;87.03;45.73;;;;;;;7.12;100.00;94914.91;5073478;28;20742;-68
2020/12/10 06:57:05;;;;;;;82.53;52.87;;;;;;;6.96;100.00;94912.84;5073497;28;20204;-68
2020/12/10 06:59:39;;;;;;;82.20;44.80;;;;;;;7.06;100.00;94889.44;5073422;28;20663;-68
2020/12/10 07:02:12;;;;;;;67.23;39.20;;;;;;;7.07;100.00;94896.13;5073604;28;20214;-68
2020/12/10 07:04:47;;;;;;;67.63;39.87;;;;;;;7.21;100.00;94905.44;5073504;28;20203;-68
2020/12/10 07:07:18;;;;;;;58.90;35.80;;;;;;;7.27;100.00;94911.28;5073250;28;20200;-68
2020/12/10 07:09:50;;;;;;;58.53;37.73;;;;;;;7.29;100.00;94893.66;5073436;28;20232;-67
2020/12/10 07:12:22;;;;;;;157.80;80.97;;;;;;;7.30;100.00;94887.44;5073461;28;20203;-68
2020/12/10 07:14:50;;;;;;;85.83;50.27;;;;;;;7.29;100.00;94878.16;5073173;28;20228;-67
2020/12/10 07:17:17;;;;;;;80.13;47.27;;;;;;;7.38;100.00;94880.81;5073161;28;20688;-67
2020/12/10 07:19:44;;;;;;;91.97;52.83;;;;;;;7.40;100.00;94876.91;5073054;28;20203;-69
2020/12/10 07:22:11;;;;;;;114.47;63.23;;;;;;;7.33;100.00;94886.84;5073356;28;20611;-68
2020/12/10 07:24:39;;;;;;;77.53;46.87;;;;;;;7.44;100.00;94885.63;5073026;28;20651;-68
2020/12/10 07:27:06;;;;;;;49.43;32.43;;;;;;;7.54;100.00;94890.59;5072991;28;20280;-67
2020/12/10 07:29:33;;;;;;;114.03;69.07;;;;;;;7.55;100.00;94907.66;5072735;28;20235;-68
2020/12/10 07:32:00;;;;;;;71.13;40.30;;;;;;;7.58;100.00;94916.63;5072785;28;20623;-66
2020/12/10 07:34:29;;;;;;;55.20;32.50;;;;;;;7.68;100.00;94922.38;5072411;28;20192;-68
2020/12/10 07:36:56;;;;;;;57.20;33.47;;;;;;;7.71;100.00;94921.81;5072742;28;20189;-69
2020/12/10 07:39:29;;;;;;;45.30;30.73;;;;;;;7.75;100.00;94906.47;5072360;28;20628;-65
2020/12/10 07:41:58;;;;;;;248.87;115.47;;;;;;;7.88;100.00;94897.94;5072570;28;20697;-69
2020/12/10 07:44:26;;;;;;;52.87;33.70;;;;;;;8.02;100.00;94890.91;5073114;28;20272;-68
2020/12/10 07:46:53;;;;;;;53.10;35.10;;;;;;;8.13;100.00;94901.81;5072531;28;20200;-68
2020/12/10 07:49:27;;;;;;;112.93;65.13;;;;;;;8.18;100.00;94906.88;5072950;28;20682;-68
2020/12/10 07:52:08;;;;;;;147.60;99.57;;;;;;;8.18;100.00;94893.94;5072461;28;20192;-68
2020/12/10 07:54:45;;;;;;;72.73;53.60;;;;;;;8.19;100.00;94890.28;5072689;28;20196;-67
2020/12/10 07:57:29;;;;;;;41.27;29.50;;;;;;;8.17;100.00;94887.22;5072384;28;20286;-68
2020/12/10 08:00:02;;;;;;;112.70;40.00;;;;;;;8.18;100.00;94891.34;5072505;28;20192;-68
2020/12/10 08:02:48;;;;;;;33.10;23.87;;;;;;;8.12;100.00;94895.09;5072620;28;20282;-67
2020/12/10 08:05:16;;;;;;;31.70;21.67;;;;;;;8.20;100.00;94886.66;5072794;28;20197;-68
2020/12/10 08:07:47;;;;;;;32.50;20.33;;;;;;;8.24;100.00;94892.75;5072209;28;20280;-69
2020/12/10 08:10:23;;;;;;;28.13;17.63;;;;;;;8.24;100.00;94882.41;5073178;28;20654;-69
2020/12/10 08:13:12;;;;;;;28.13;19.10;;;;;;;8.28;100.00;94898.88;5072411;28;20220;-68
2020/12/10 08:15:40;;;;;;;118.20;49.30;;;;;;;8.35;100.00;94896.69;5072131;28;20607;-64
2020/12/10 08:18:09;;;;;;;209.43;78.27;;;;;;;8.31;100.00;94900.94;5071942;28;20283;-70
2020/12/10 08:20:41;;;;;;;108.40;56.07;;;;;;;8.25;100.00;94906.47;5071997;28;20189;-68
2020/12/10 08:23:08;;;;;;;74.60;40.40;;;;;;;8.40;100.00;94903.59;5072001;28;20287;-69
2020/12/10 08:25:35;;;;;;;140.00;62.20;;;;;;;8.48;100.00;94901.03;5072055;28;20239;-68
2020/12/10 08:28:04;;;;;;;175.90;82.67;;;;;;;8.57;100.00;94901.09;5072010;28;20234;-69
2020/12/10 08:30:33;;;;;;;264.97;108.97;;;;;;;8.64;100.00;94904.81;5071827;28;20220;-68
2020/12/10 08:33:00;;;;;;;243.57;101.50;;;;;;;8.64;100.00;94899.66;5071800;28;20198;-69
2020/12/10 08:35:28;;;;;;;139.57;56.03;;;;;;;8.73;100.00;94901.50;5071964;28;20200;-67
2020/12/10 08:37:55;;;;;;;116.77;52.80;;;;;;;8.84;100.00;94900.22;5071687;28;20278;-67
2020/12/10 08:40:26;;;;;;;574.03;235.43;;;;;;;8.93;100.00;94899.19;5071504;28;20704;-67
2020/12/10 08:42:53;;;;;;;282.27;104.00;;;;;;;9.04;100.00;94900.47;5071537;28;20280;-69
2020/12/10 08:45:30;;;;;;;96.20;50.83;;;;;;;9.06;100.00;94907.97;5071568;28;20753;-69
2020/12/10 08:48:00;;;;;;;74.67;39.33;;;;;;;9.17;100.00;94903.28;5071706;28;20192;-68
2020/12/10 08:50:27;;;;;;;46.67;27.20;;;;;;;9.18;100.00;94895.19;5070856;28;20196;-68
2020/12/10 08:53:08;;;;;;;41.57;24.33;;;;;;;9.34;100.00;94885.97;5071400;28;20283;-68
2020/12/10 08:55:40;;;;;;;71.50;33.83;;;;;;;9.45;100.00;94876.09;5071559;28;20206;-65
2020/12/10 08:58:07;;;;;;;84.33;37.80;;;;;;;9.50;100.00;94868.94;5071544;28;20203;-67
2020/12/10 09:00:38;;;;;;;82.73;39.00;;;;;;;9.54;100.00;94870.94;5071347;28;20254;-69
2020/12/10 09:03:06;;;;;;;76.43;36.93;;;;;;;9.56;100.00;94858.44;5071484;28;20767;-69
2020/12/10 09:05:33;;;;;;;59.07;29.23;;;;;;;9.51;100.00;94862.69;5071031;28;20184;-69
2020/12/10 09:08:00;;;;;;;69.03;34.40;;;;;;;9.54;100.00;94850.94;5071303;28;20276;-68
2020/12/10 09:10:29;;;;;;;71.77;35.80;;;;;;;9.67;100.00;94849.28;5071060;28;20192;-67
2020/12/10 09:12:57;;;;;;;57.17;30.90;;;;;;;9.63;100.00;94853.56;5071054;28;20262;-66
2020/12/10 09:15:24;;;;;;;41.90;24.33;;;;;;;9.60;100.00;94844.56;5071117;28;20196;-67
2020/12/10 09:17:51;;;;;;;46.83;26.23;;;;;;;9.63;100.00;94848.38;5071001;28;20671;-67
2020/12/10 09:20:19;;;;;;;42.20;28.07;;;;;;;9.58;100.00;94844.09;5070780;28;20278;-68
2020/12/10 09:22:46;;;;;;;84.17;48.13;;;;;;;9.67;100.00;94844.09;5070722;28;20205;-69
2020/12/10 09:25:13;;;;;;;109.07;62.33;;;;;;;9.57;100.00;94845.16;5070639;28;20294;-67
2020/12/10 09:27:40;;;;;;;110.03;62.93;;;;;;;9.59;100.00;94852.63;5070576;28;20242;-68
2020/12/10 09:30:08;;;;;;;204.13;98.13;;;;;;;9.60;100.00;94844.56;5070665;28;20308;-69
2020/12/10 09:32:36;;;;;;;124.73;71.90;;;;;;;9.59;100.00;94822.28;5070634;28;20253;-69
2020/12/10 09:35:05;;;;;;;125.10;71.53;;;;;;;9.63;100.00;94828.38;5070638;28;20200;-68
2020/12/10 09:37:34;;;;;;;180.43;87.70;;;;;;;9.55;100.00;94842.13;5070436;28;20193;-68
2020/12/10 09:40:01;;;;;;;154.30;69.60;;;;;;;9.44;100.00;94848.63;5070083;28;20317;-68
2020/12/10 09:42:28;;;;;;;49.67;31.47;;;;;;;9.17;100.00;94852.19;5070683;28;20203;-68
2020/12/10 09:44:55;;;;;;;49.47;33.90;;;;;;;8.80;100.00;94852.66;5070725;28;20196;-69
2020/12/10 09:47:21;;;;;;;43.17;29.77;;;;;;;8.93;100.00;94849.97;5070392;28;20206;-68
2020/12/10 09:49:48;;;;;;;166.53;79.67;;;;;;;8.96;100.00;94846.03;5070423;28;20740;-68
2020/12/10 09:52:15;;;;;;;92.67;51.03;;;;;;;8.99;100.00;94856.56;5070694;28;20272;-68
2020/12/10 09:57:30;;;;;;;66.33;39.57;;;;;;;9.03;100.00;94860.06;5070349;28;20189;-67
2020/12/10 09:59:58;;;;;;;74.53;38.40;;;;;;;9.04;100.00;94863.44;5070389;28;20226;-65
2020/12/10 10:02:25;;;;;;;58.03;33.80;;;;;;;8.98;100.00;94865.38;5070006;28;20200;-69
2020/12/10 10:04:51;;;;;;;52.73;29.87;;;;;;;8.98;100.00;94864.63;5070569;28;20220;-69
2020/12/10 10:07:18;;;;;;;47.90;28.20;;;;;;;8.93;100.00;94867.34;5070577;28;20210;-69
2020/12/10 10:09:47;;;;;;;42.20;24.47;;;;;;;8.91;100.00;94862.47;5069894;28;20228;-69
2020/12/10 10:12:14;;;;;;;35.37;23.63;;;;;;;9.00;100.00;94860.69;5070195;28;20196;-69
2020/12/10 10:14:42;;;;;;;33.23;21.10;;;;;;;9.11;100.00;94863.00;5070309;28;20291;-67
2020/12/10 10:17:10;;;;;;;33.63;20.93;;;;;;;9.16;100.00;94861.06;5070445;28;20709;-69
2020/12/10 10:19:37;;;;;;;31.97;21.57;;;;;;;9.17;100.00;94851.44;5070408;28;20287;-70
2020/12/10 10:22:04;;;;;;;33.43;23.80;;;;;;;9.18;100.00;94855.56;5069955;28;20192;-69
2020/12/10 10:24:32;;;;;;;33.80;23.93;;;;;;;9.10;100.00;94838.91;5069939;28;20197;-68
2020/12/10 10:26:59;;;;;;;41.47;26.83;;;;;;;9.14;100.00;94834.66;5070043;28;20205;-69
2020/12/10 10:29:26;;;;;;;36.20;26.07;;;;;;;9.19;100.00;94818.97;5069763;28;20230;-68
2020/12/10 10:31:53;;;;;;;45.10;31.37;;;;;;;9.27;100.00;94826.00;5069767;28;20192;-68
2020/12/10 10:34:20;;;;;;;46.20;30.43;;;;;;;9.28;100.00;94822.34;5070227;28;20663;-69
2020/12/10 10:36:50;;;;;;;84.50;50.20;;;;;;;9.24;100.00;94813.66;5069852;28;20200;-69
2020/12/10 10:39:17;;;;;;;45.90;30.93;;;;;;;9.27;100.00;94809.69;5069844;28;20618;-68
2020/12/10 10:41:45;;;;;;;59.03;39.67;;;;;;;9.39;100.00;94815.06;5069656;28;20230;-69
2020/12/10 10:44:14;;;;;;;72.73;45.83;;;;;;;9.43;100.00;94814.16;5069728;28;20719;-68
2020/12/10 10:46:41;;;;;;;59.30;39.67;;;;;;;9.48;100.00;94814.00;5069787;28;20919;-69
2020/12/10 10:49:08;;;;;;;72.27;43.93;;;;;;;9.55;100.00;94816.16;5069746;28;20227;-69
2020/12/10 10:51:35;;;;;;;80.33;48.40;;;;;;;9.52;100.00;94812.34;5069701;28;20275;-67
2020/12/10 10:54:02;;;;;;;61.43;39.77;;;;;;;9.55;100.00;94815.41;5069627;28;20283;-69
2020/12/10 10:56:29;;;;;;;124.63;74.90;;;;;;;9.55;100.00;94821.34;5069651;28;20195;-69
2020/12/10 10:58:57;;;;;;;112.50;66.63;;;;;;;9.64;100.00;94822.13;5069710;28;20698;-69
2020/12/10 11:01:29;;;;;;;102.57;55.90;;;;;;;9.58;100.00;94814.78;5069659;28;20228;-69
2020/12/10 11:03:57;;;;;;;181.47;100.03;;;;;;;9.49;100.00;94820.72;5069582;28;20193;-68
2020/12/10 11:06:23;;;;;;;119.80;65.77;;;;;;;9.49;100.00;94807.00;5069708;28;20192;-69
2020/12/10 11:08:50;;;;;;;96.67;55.63;;;;;;;9.46;100.00;94810.94;5069906;28;20666;-68
2020/12/10 11:11:21;;;;;;;200.00;119.63;;;;;;;9.49;100.00;94802.59;5069481;28;20193;-67
2020/12/10 11:13:48;;;;;;;123.87;69.47;;;;;;;9.48;100.00;94801.06;5070047;28;20287;-68
2020/12/10 11:16:15;;;;;;;166.90;91.53;;;;;;;9.44;100.00;94792.34;5073145;28;20773;-65
2020/12/10 11:18:44;;;;;;;186.03;93.13;;;;;;;9.44;100.00;94794.94;5073215;28;20193;-68
2020/12/10 11:21:11;;;;;;;170.70;91.80;;;;;;;9.40;100.00;94788.06;5073217;28;20703;-69
2020/12/10 11:23:38;;;;;;;137.93;80.97;;;;;;;9.37;100.00;94788.66;5073546;28;20207;-69
2020/12/10 11:26:05;;;;;;;136.20;81.40;;;;;;;9.30;100.00;94796.91;5073073;28;20202;-69